In Rescue
 
Open Full Screen Window  High Contrast Mode
Wind Gusting 00 knots
09
September 18, 2020 9:36 PM CDT
Weather Information
Wind Direction
  100 °
Wind Speed
  09 kt (10 mph)
Wind Gust
  00 kt (0 mph)
Altimeter
30.24 in
Visibility
10 SM
Temperature
11° C
52° F
Dewpoint
04° C
39° F
Humidity
62%
1hr Rain Fall
00.00 in.
24hr Rain Fall
00.00 in.
Sky Condition
Clear
VFR

METAR KY63 190236Z AUTO 10009KT 10SM CLR 11/04 A3024 RMK AO2 T01100042

FAA Disclaimer: The data displayed is for advisory purposes only and is not to be used for flight planning or operations.